sensor_id;sensor_type;location;lat;lon;timestamp;pressure;altitude;pressure_sealevel;temperature;humidity
34742;BME280;20968;42.696;23.360;2023-12-04T00:01:34;95738.63;;;1.03;69.05
34742;BME280;20968;42.696;23.360;2023-12-04T00:04:01;95745.22;;;1.05;68.92
34742;BME280;20968;42.696;23.360;2023-12-04T00:06:26;95739.03;;;1.01;68.56
34742;BME280;20968;42.696;23.360;2023-12-04T00:08:52;95750.97;;;1.07;68.34
34742;BME280;20968;42.696;23.360;2023-12-04T00:11:17;95750.25;;;1.03;68.24
34742;BME280;20968;42.696;23.360;2023-12-04T00:13:43;95752.28;;;0.92;69.33
34742;BME280;20968;42.696;23.360;2023-12-04T00:16:08;95752.34;;;0.85;69.36
34742;BME280;20968;42.696;23.360;2023-12-04T00:18:34;95754.28;;;0.88;69.42
34742;BME280;20968;42.696;23.360;2023-12-04T00:20:59;95768.53;;;0.92;68.84
34742;BME280;20968;42.696;23.360;2023-12-04T00:23:25;95764.25;;;0.98;68.64
34742;BME280;20968;42.696;23.360;2023-12-04T00:25:50;95776.56;;;1.03;67.58
34742;BME280;20968;42.696;23.360;2023-12-04T00:28:15;95771.94;;;1.03;67.86
34742;BME280;20968;42.696;23.360;2023-12-04T00:30:41;95770.41;;;1.02;67.43
34742;BME280;20968;42.696;23.360;2023-12-04T00:33:06;95787.09;;;0.97;67.01
34742;BME280;20968;42.696;23.360;2023-12-04T00:35:32;95793.69;;;0.96;68.16
34742;BME280;20968;42.696;23.360;2023-12-04T00:37:57;95780.13;;;0.96;68.06
34742;BME280;20968;42.696;23.360;2023-12-04T00:40:23;95780.47;;;1.02;68.57
34742;BME280;20968;42.696;23.360;2023-12-04T00:42:48;95787.44;;;0.99;68.07
34742;BME280;20968;42.696;23.360;2023-12-04T00:45:14;95791.75;;;0.93;69.02
34742;BME280;20968;42.696;23.360;2023-12-04T00:47:39;95793.59;;;1.07;68.32
34742;BME280;20968;42.696;23.360;2023-12-04T00:50:05;95796.31;;;1.03;68.57
34742;BME280;20968;42.696;23.360;2023-12-04T00:52:30;95800.72;;;0.90;68.90
34742;BME280;20968;42.696;23.360;2023-12-04T00:54:56;95799.56;;;0.88;69.20
34742;BME280;20968;42.696;23.360;2023-12-04T00:57:21;95797.16;;;0.97;68.82
34742;BME280;20968;42.696;23.360;2023-12-04T00:59:46;95797.53;;;0.99;68.94
34742;BME280;20968;42.696;23.360;2023-12-04T01:02:12;95798.66;;;1.01;69.49
34742;BME280;20968;42.696;23.360;2023-12-04T01:04:40;95795.16;;;1.04;68.42
34742;BME280;20968;42.696;23.360;2023-12-04T01:07:08;95809.06;;;1.06;68.22
34742;BME280;20968;42.696;23.360;2023-12-04T01:09:37;95803.25;;;1.08;68.82
34742;BME280;20968;42.696;23.360;2023-12-04T01:12:03;95799.75;;;1.07;69.28
34742;BME280;20968;42.696;23.360;2023-12-04T01:14:29;95805.94;;;1.11;68.80
34742;BME280;20968;42.696;23.360;2023-12-04T01:16:55;95811.81;;;1.03;68.23
34742;BME280;20968;42.696;23.360;2023-12-04T01:19:21;95815.34;;;1.00;68.20
34742;BME280;20968;42.696;23.360;2023-12-04T01:21:46;95823.91;;;0.91;68.96
34742;BME280;20968;42.696;23.360;2023-12-04T01:24:14;95816.97;;;0.90;68.61
34742;BME280;20968;42.696;23.360;2023-12-04T01:26:39;95809.97;;;0.93;69.45
34742;BME280;20968;42.696;23.360;2023-12-04T01:29:05;95816.19;;;0.90;69.02
34742;BME280;20968;42.696;23.360;2023-12-04T01:31:30;95808.09;;;0.86;69.16
34742;BME280;20968;42.696;23.360;2023-12-04T01:33:57;95810.84;;;0.79;69.30
34742;BME280;20968;42.696;23.360;2023-12-04T01:36:22;95814.72;;;0.82;69.51
34742;BME280;20968;42.696;23.360;2023-12-04T01:38:48;95816.63;;;0.85;68.55
34742;BME280;20968;42.696;23.360;2023-12-04T01:41:13;95813.19;;;0.77;69.45
34742;BME280;20968;42.696;23.360;2023-12-04T01:43:39;95823.34;;;0.70;68.16
34742;BME280;20968;42.696;23.360;2023-12-04T01:46:04;95814.41;;;0.70;68.20
34742;BME280;20968;42.696;23.360;2023-12-04T01:48:31;95825.25;;;0.70;68.95
34742;BME280;20968;42.696;23.360;2023-12-04T01:50:58;95819.88;;;0.66;69.44
34742;BME280;20968;42.696;23.360;2023-12-04T01:53:25;95820.28;;;0.65;69.37
34742;BME280;20968;42.696;23.360;2023-12-04T01:55:51;95808.63;;;0.71;69.95
34742;BME280;20968;42.696;23.360;2023-12-04T01:58:17;95822.47;;;0.80;70.13
34742;BME280;20968;42.696;23.360;2023-12-04T02:00:42;95822.06;;;0.81;69.07
34742;BME280;20968;42.696;23.360;2023-12-04T02:03:08;95812.34;;;0.87;69.35
34742;BME280;20968;42.696;23.360;2023-12-04T02:05:35;95819.72;;;0.87;69.17
34742;BME280;20968;42.696;23.360;2023-12-04T02:08:01;95822.09;;;0.78;68.81
34742;BME280;20968;42.696;23.360;2023-12-04T02:10:26;95823.19;;;0.87;69.49
34742;BME280;20968;42.696;23.360;2023-12-04T02:12:51;95823.94;;;0.88;69.12
34742;BME280;20968;42.696;23.360;2023-12-04T02:15:17;95829.41;;;0.81;69.32
34742;BME280;20968;42.696;23.360;2023-12-04T02:17:43;95833.25;;;0.87;69.86
34742;BME280;20968;42.696;23.360;2023-12-04T02:20:09;95831.00;;;0.78;68.44
34742;BME280;20968;42.696;23.360;2023-12-04T02:22:35;95840.22;;;0.84;67.99
34742;BME280;20968;42.696;23.360;2023-12-04T02:25:00;95846.47;;;0.81;68.54
34742;BME280;20968;42.696;23.360;2023-12-04T02:27:49;95854.66;;;0.75;68.55
34742;BME280;20968;42.696;23.360;2023-12-04T02:30:18;95852.69;;;0.75;68.42
34742;BME280;20968;42.696;23.360;2023-12-04T02:32:45;95851.97;;;0.71;68.40
34742;BME280;20968;42.696;23.360;2023-12-04T02:35:13;95862.78;;;0.75;68.28
34742;BME280;20968;42.696;23.360;2023-12-04T02:37:40;95860.16;;;0.64;67.85
34742;BME280;20968;42.696;23.360;2023-12-04T02:40:06;95856.28;;;0.58;68.58
34742;BME280;20968;42.696;23.360;2023-12-04T02:42:32;95857.41;;;0.68;68.19
34742;BME280;20968;42.696;23.360;2023-12-04T02:44:57;95857.47;;;0.61;68.36
34742;BME280;20968;42.696;23.360;2023-12-04T02:47:23;95856.66;;;0.64;68.17
34742;BME280;20968;42.696;23.360;2023-12-04T02:49:48;95855.91;;;0.60;68.44
34742;BME280;20968;42.696;23.360;2023-12-04T02:52:14;95859.38;;;0.60;67.73
34742;BME280;20968;42.696;23.360;2023-12-04T02:54:39;95866.69;;;0.67;67.97
34742;BME280;20968;42.696;23.360;2023-12-04T02:57:05;95858.28;;;0.51;68.32
34742;BME280;20968;42.696;23.360;2023-12-04T02:59:30;95855.19;;;0.52;68.18
34742;BME280;20968;42.696;23.360;2023-12-04T03:01:56;95859.84;;;0.52;68.24
34742;BME280;20968;42.696;23.360;2023-12-04T03:04:21;95855.97;;;0.53;67.36
34742;BME280;20968;42.696;23.360;2023-12-04T03:06:46;95858.63;;;0.60;67.46
34742;BME280;20968;42.696;23.360;2023-12-04T03:09:12;95858.66;;;0.53;67.95
34742;BME280;20968;42.696;23.360;2023-12-04T03:11:41;95868.34;;;0.50;67.68
34742;BME280;20968;42.696;23.360;2023-12-04T03:14:06;95860.25;;;0.43;68.28
34742;BME280;20968;42.696;23.360;2023-12-04T03:16:32;95860.31;;;0.33;67.96
34742;BME280;20968;42.696;23.360;2023-12-04T03:18:58;95863.06;;;0.26;68.20
34742;BME280;20968;42.696;23.360;2023-12-04T03:21:23;95860.44;;;0.12;69.12
34742;BME280;20968;42.696;23.360;2023-12-04T03:23:49;95860.47;;;0.05;69.55
34742;BME280;20968;42.696;23.360;2023-12-04T03:26:14;95860.03;;;0.13;69.90
34742;BME280;20968;42.696;23.360;2023-12-04T03:28:39;95864.78;;;-0.01;69.29
34742;BME280;20968;42.696;23.360;2023-12-04T03:31:05;95874.81;;;-0.05;69.68
34742;BME280;20968;42.696;23.360;2023-12-04T03:33:31;95870.94;;;-0.04;69.49
34742;BME280;20968;42.696;23.360;2023-12-04T03:35:58;95870.56;;;-0.03;70.03
34742;BME280;20968;42.696;23.360;2023-12-04T03:38:23;95874.44;;;-0.10;69.78
34742;BME280;20968;42.696;23.360;2023-12-04T03:40:49;95874.06;;;-0.09;68.70
34742;BME280;20968;42.696;23.360;2023-12-04T03:43:14;95879.50;;;-0.09;69.50
34742;BME280;20968;42.696;23.360;2023-12-04T03:45:39;95881.03;;;-0.08;68.74
34742;BME280;20968;42.696;23.360;2023-12-04T03:48:05;95878.31;;;-0.08;69.05
34742;BME280;20968;42.696;23.360;2023-12-04T03:50:30;95888.72;;;-0.03;68.67
34742;BME280;20968;42.696;23.360;2023-12-04T03:52:56;95890.28;;;-0.02;68.06
34742;BME280;20968;42.696;23.360;2023-12-04T03:55:22;95880.19;;;0.02;68.13
34742;BME280;20968;42.696;23.360;2023-12-04T03:57:47;95888.31;;;-0.02;68.74
34742;BME280;20968;42.696;23.360;2023-12-04T04:00:13;95879.03;;;0.06;68.74
34742;BME280;20968;42.696;23.360;2023-12-04T04:02:39;95879.81;;;0.03;67.74
34742;BME280;20968;42.696;23.360;2023-12-04T04:05:05;95882.88;;;0.09;68.00
34742;BME280;20968;42.696;23.360;2023-12-04T04:07:31;95880.59;;;0.04;67.50
34742;BME280;20968;42.696;23.360;2023-12-04T04:09:56;95889.16;;;-0.15;68.33
34742;BME280;20968;42.696;23.360;2023-12-04T04:12:22;95888.38;;;-0.12;68.25
34742;BME280;20968;42.696;23.360;2023-12-04T04:14:47;95882.53;;;-0.07;68.36
34742;BME280;20968;42.696;23.360;2023-12-04T04:17:13;95895.69;;;-0.05;68.03
34742;BME280;20968;42.696;23.360;2023-12-04T04:19:38;95901.13;;;-0.09;68.06
34742;BME280;20968;42.696;23.360;2023-12-04T04:22:03;95895.72;;;-0.12;67.51
34742;BME280;20968;42.696;23.360;2023-12-04T04:24:29;95903.84;;;-0.16;67.99
34742;BME280;20968;42.696;23.360;2023-12-04T04:26:54;95905.78;;;-0.20;67.72
34742;BME280;20968;42.696;23.360;2023-12-04T04:29:20;95907.31;;;-0.12;68.74
34742;BME280;20968;42.696;23.360;2023-12-04T04:31:45;95916.59;;;-0.16;67.68
34742;BME280;20968;42.696;23.360;2023-12-04T04:34:10;95896.13;;;-0.21;68.37
34742;BME280;20968;42.696;23.360;2023-12-04T04:36:36;95920.13;;;-0.23;68.29
34742;BME280;20968;42.696;23.360;2023-12-04T04:39:02;95921.63;;;-0.22;68.31
34742;BME280;20968;42.696;23.360;2023-12-04T04:41:27;95917.78;;;-0.24;68.41
34742;BME280;20968;42.696;23.360;2023-12-04T04:43:53;95914.28;;;-0.18;68.59
34742;BME280;20968;42.696;23.360;2023-12-04T04:46:18;95916.22;;;-0.18;67.82
34742;BME280;20968;42.696;23.360;2023-12-04T04:48:44;95920.47;;;-0.17;68.01
34742;BME280;20968;42.696;23.360;2023-12-04T04:51:10;95927.03;;;-0.11;67.22
34742;BME280;20968;42.696;23.360;2023-12-04T04:53:35;95930.09;;;-0.13;67.47
34742;BME280;20968;42.696;23.360;2023-12-04T04:56:01;95933.63;;;-0.23;67.55
34742;BME280;20968;42.696;23.360;2023-12-04T04:58:26;95936.34;;;-0.19;67.58
34742;BME280;20968;42.696;23.360;2023-12-04T05:00:51;95925.84;;;-0.14;67.69
34742;BME280;20968;42.696;23.360;2023-12-04T05:03:17;95932.03;;;-0.03;67.38
34742;BME280;20968;42.696;23.360;2023-12-04T05:05:42;95930.88;;;-0.02;66.53
34742;BME280;20968;42.696;23.360;2023-12-04T05:08:08;95931.25;;;0.00;66.74
34742;BME280;20968;42.696;23.360;2023-12-04T05:10:33;95930.50;;;-0.14;66.61
34742;BME280;20968;42.696;23.360;2023-12-04T05:12:58;95940.56;;;-0.11;67.09
34742;BME280;20968;42.696;23.360;2023-12-04T05:15:24;95948.22;;;0.04;66.38
34742;BME280;20968;42.696;23.360;2023-12-04T05:17:51;95952.91;;;0.00;65.84
34742;BME280;20968;42.696;23.360;2023-12-04T05:20:16;95958.25;;;0.17;65.99
34742;BME280;20968;42.696;23.360;2023-12-04T05:22:42;95957.47;;;0.13;65.93
34742;BME280;20968;42.696;23.360;2023-12-04T05:25:07;95955.22;;;-0.02;65.46
34742;BME280;20968;42.696;23.360;2023-12-04T05:27:33;95951.72;;;-0.03;66.56
34742;BME280;20968;42.696;23.360;2023-12-04T05:29:58;95944.75;;;0.07;66.39
34742;BME280;20968;42.696;23.360;2023-12-04T05:32:24;95952.13;;;-0.04;66.41
34742;BME280;20968;42.696;23.360;2023-12-04T05:34:49;95950.56;;;-0.02;66.56
34742;BME280;20968;42.696;23.360;2023-12-04T05:37:14;95955.97;;;0.02;66.20
34742;BME280;20968;42.696;23.360;2023-12-04T05:39:41;95950.97;;;-0.03;65.36
34742;BME280;20968;42.696;23.360;2023-12-04T05:42:06;95953.66;;;-0.03;66.51
34742;BME280;20968;42.696;23.360;2023-12-04T05:44:33;95958.31;;;0.00;66.20
34742;BME280;20968;42.696;23.360;2023-12-04T05:46:58;95961.75;;;0.11;64.91
34742;BME280;20968;42.696;23.360;2023-12-04T05:49:24;95962.13;;;0.09;65.86
34742;BME280;20968;42.696;23.360;2023-12-04T05:51:49;95963.28;;;0.08;65.75
34742;BME280;20968;42.696;23.360;2023-12-04T05:54:15;95966.81;;;-0.12;66.74
34742;BME280;20968;42.696;23.360;2023-12-04T05:56:40;95956.78;;;-0.04;66.19
34742;BME280;20968;42.696;23.360;2023-12-04T05:59:05;95963.72;;;-0.10;66.22
34742;BME280;20968;42.696;23.360;2023-12-04T06:01:31;95966.00;;;0.05;66.98
34742;BME280;20968;42.696;23.360;2023-12-04T06:03:56;95966.06;;;-0.09;66.29
34742;BME280;20968;42.696;23.360;2023-12-04T06:06:22;95966.41;;;-0.07;66.25
34742;BME280;20968;42.696;23.360;2023-12-04T06:08:47;95969.84;;;0.11;66.31
34742;BME280;20968;42.696;23.360;2023-12-04T06:11:13;95973.69;;;0.17;66.06
34742;BME280;20968;42.696;23.360;2023-12-04T06:13:39;95980.66;;;0.14;65.55
34742;BME280;20968;42.696;23.360;2023-12-04T06:16:05;95981.81;;;0.17;65.50
34742;BME280;20968;42.696;23.360;2023-12-04T06:18:30;95975.25;;;0.18;66.24
34742;BME280;20968;42.696;23.360;2023-12-04T06:20:56;95973.75;;;0.03;65.81
34742;BME280;20968;42.696;23.360;2023-12-04T06:23:21;95973.38;;;-0.06;65.40
34742;BME280;20968;42.696;23.360;2023-12-04T06:25:47;95971.44;;;0.01;66.35
34742;BME280;20968;42.696;23.360;2023-12-04T06:28:13;95979.97;;;0.00;66.04
34742;BME280;20968;42.696;23.360;2023-12-04T06:30:38;95983.00;;;0.09;65.93
34742;BME280;20968;42.696;23.360;2023-12-04T06:33:04;95982.94;;;0.23;65.52
34742;BME280;20968;42.696;23.360;2023-12-04T06:35:31;95980.25;;;0.30;66.08
34742;BME280;20968;42.696;23.360;2023-12-04T06:38:00;95987.16;;;0.34;65.05
34742;BME280;20968;42.696;23.360;2023-12-04T06:40:29;95992.22;;;0.36;65.34
34742;BME280;20968;42.696;23.360;2023-12-04T06:42:55;96004.16;;;0.42;65.02
34742;BME280;20968;42.696;23.360;2023-12-04T06:45:21;96010.00;;;0.33;64.81
34742;BME280;20968;42.696;23.360;2023-12-04T06:47:50;96006.94;;;0.28;65.03
34742;BME280;20968;42.696;23.360;2023-12-04T06:50:16;96012.31;;;0.35;65.23
34742;BME280;20968;42.696;23.360;2023-12-04T06:52:41;96010.44;;;0.18;64.94
34742;BME280;20968;42.696;23.360;2023-12-04T06:55:07;96016.22;;;0.27;64.91
34742;BME280;20968;42.696;23.360;2023-12-04T06:57:33;96010.78;;;0.27;64.90
34742;BME280;20968;42.696;23.360;2023-12-04T07:00:00;96016.19;;;0.30;65.00
34742;BME280;20968;42.696;23.360;2023-12-04T07:02:25;96022.38;;;0.31;64.34
34742;BME280;20968;42.696;23.360;2023-12-04T07:04:51;96018.13;;;0.37;64.35
34742;BME280;20968;42.696;23.360;2023-12-04T07:07:16;96019.69;;;0.24;64.31
34742;BME280;20968;42.696;23.360;2023-12-04T07:09:42;96017.41;;;0.15;64.40
34742;BME280;20968;42.696;23.360;2023-12-04T07:12:07;96017.38;;;0.19;64.96
34742;BME280;20968;42.696;23.360;2023-12-04T07:14:33;96023.22;;;0.14;65.15
34742;BME280;20968;42.696;23.360;2023-12-04T07:16:59;96018.16;;;0.19;64.31
34742;BME280;20968;42.696;23.360;2023-12-04T07:19:25;96016.97;;;0.24;64.20
34742;BME280;20968;42.696;23.360;2023-12-04T07:21:52;96023.94;;;0.25;64.66
34742;BME280;20968;42.696;23.360;2023-12-04T07:24:18;96024.72;;;0.29;65.01
34742;BME280;20968;42.696;23.360;2023-12-04T07:26:44;96017.75;;;0.31;64.19
34742;BME280;20968;42.696;23.360;2023-12-04T07:29:10;96025.47;;;0.33;64.68
34742;BME280;20968;42.696;23.360;2023-12-04T07:31:35;96029.28;;;0.53;64.73
34742;BME280;20968;42.696;23.360;2023-12-04T07:34:01;96024.25;;;0.48;63.77
34742;BME280;20968;42.696;23.360;2023-12-04T07:36:28;96037.81;;;0.41;63.80
34742;BME280;20968;42.696;23.360;2023-12-04T07:38:53;96037.09;;;0.26;64.47
34742;BME280;20968;42.696;23.360;2023-12-04T07:41:19;96038.63;;;0.24;64.15
34742;BME280;20968;42.696;23.360;2023-12-04T07:43:45;96039.81;;;0.30;64.42
34742;BME280;20968;42.696;23.360;2023-12-04T07:46:11;96035.13;;;0.34;63.26
34742;BME280;20968;42.696;23.360;2023-12-04T07:48:39;96036.28;;;0.33;64.36
34742;BME280;20968;42.696;23.360;2023-12-04T07:51:06;96032.38;;;0.48;63.79
34742;BME280;20968;42.696;23.360;2023-12-04T07:53:32;96034.31;;;0.54;63.97
34742;BME280;20968;42.696;23.360;2023-12-04T07:56:01;96036.22;;;0.61;63.16
34742;BME280;20968;42.696;23.360;2023-12-04T07:58:28;96032.28;;;0.69;62.56
34742;BME280;20968;42.696;23.360;2023-12-04T08:00:53;96043.50;;;0.71;62.53
34742;BME280;20968;42.696;23.360;2023-12-04T08:03:19;96042.34;;;0.75;62.12
34742;BME280;20968;42.696;23.360;2023-12-04T08:05:44;96038.47;;;0.76;62.05
34742;BME280;20968;42.696;23.360;2023-12-04T08:08:09;96046.56;;;0.79;61.17
34742;BME280;20968;42.696;23.360;2023-12-04T08:10:35;96050.88;;;0.70;61.79
34742;BME280;20968;42.696;23.360;2023-12-04T08:13:00;96051.63;;;0.71;61.46
34742;BME280;20968;42.696;23.360;2023-12-04T08:15:25;96051.28;;;0.72;62.06
34742;BME280;20968;42.696;23.360;2023-12-04T08:17:51;96053.13;;;0.85;61.60
34742;BME280;20968;42.696;23.360;2023-12-04T08:20:17;96063.19;;;0.88;61.06
34742;BME280;20968;42.696;23.360;2023-12-04T08:22:42;96055.03;;;0.92;60.96
34742;BME280;20968;42.696;23.360;2023-12-04T08:25:10;96048.41;;;1.03;60.69
34742;BME280;20968;42.696;23.360;2023-12-04T08:27:36;96047.50;;;1.24;60.71
34742;BME280;20968;42.696;23.360;2023-12-04T08:30:04;96049.75;;;1.36;60.31
34742;BME280;20968;42.696;23.360;2023-12-04T08:32:29;96044.69;;;1.41;59.65
34742;BME280;20968;42.696;23.360;2023-12-04T08:34:55;96056.34;;;1.31;60.36
34742;BME280;20968;42.696;23.360;2023-12-04T08:37:20;96052.06;;;1.34;60.44
34742;BME280;20968;42.696;23.360;2023-12-04T08:39:46;96049.78;;;1.32;61.04
34742;BME280;20968;42.696;23.360;2023-12-04T08:42:11;96055.19;;;1.32;60.34
34742;BME280;20968;42.696;23.360;2023-12-04T08:44:37;96048.19;;;1.35;60.20
34742;BME280;20968;42.696;23.360;2023-12-04T08:47:03;96042.31;;;1.50;60.34
34742;BME280;20968;42.696;23.360;2023-12-04T08:49:28;96043.03;;;1.54;60.48
34742;BME280;20968;42.696;23.360;2023-12-04T08:51:54;96043.84;;;1.51;59.41
34742;BME280;20968;42.696;23.360;2023-12-04T08:54:19;96042.97;;;1.61;58.88
34742;BME280;20968;42.696;23.360;2023-12-04T08:56:45;96049.53;;;1.67;58.42
34742;BME280;20968;42.696;23.360;2023-12-04T08:59:10;96047.06;;;1.83;58.70
34742;BME280;20968;42.696;23.360;2023-12-04T09:01:35;96047.75;;;1.94;57.94
34742;BME280;20968;42.696;23.360;2023-12-04T09:04:01;96051.34;;;1.80;57.64
34742;BME280;20968;42.696;23.360;2023-12-04T09:06:27;96046.63;;;1.91;58.24
34742;BME280;20968;42.696;23.360;2023-12-04T09:08:52;96039.22;;;1.92;57.47
34742;BME280;20968;42.696;23.360;2023-12-04T09:11:18;96032.19;;;2.01;57.13
34742;BME280;20968;42.696;23.360;2023-12-04T09:13:43;96029.03;;;2.06;57.54
34742;BME280;20968;42.696;23.360;2023-12-04T09:16:09;96023.38;;;2.27;57.07
34742;BME280;20968;42.696;23.360;2023-12-04T09:18:35;96020.03;;;2.49;57.43
34742;BME280;20968;42.696;23.360;2023-12-04T09:21:00;96022.84;;;2.76;56.44
34742;BME280;20968;42.696;23.360;2023-12-04T09:23:26;96025.00;;;2.88;55.02
34742;BME280;20968;42.696;23.360;2023-12-04T09:25:51;96014.78;;;2.99;55.22
34742;BME280;20968;42.696;23.360;2023-12-04T09:28:17;96022.41;;;3.07;54.11
34742;BME280;20968;42.696;23.360;2023-12-04T09:30:42;96008.00;;;3.10;53.82
34742;BME280;20968;42.696;23.360;2023-12-04T09:33:08;96010.47;;;3.27;54.69
34742;BME280;20968;42.696;23.360;2023-12-04T09:35:33;96008.31;;;3.42;54.94
34742;BME280;20968;42.696;23.360;2023-12-04T09:37:59;96014.63;;;3.62;54.65
34742;BME280;20968;42.696;23.360;2023-12-04T09:40:25;96009.69;;;3.80;54.15
34742;BME280;20968;42.696;23.360;2023-12-04T09:42:51;96010.13;;;3.97;54.65
34742;BME280;20968;42.696;23.360;2023-12-04T09:45:18;96018.84;;;4.12;52.91
34742;BME280;20968;42.696;23.360;2023-12-04T09:47:44;96011.44;;;4.12;52.58
34742;BME280;20968;42.696;23.360;2023-12-04T09:50:11;96002.59;;;4.28;53.94
34742;BME280;20968;42.696;23.360;2023-12-04T09:52:36;95989.97;;;4.37;54.58
34742;BME280;20968;42.696;23.360;2023-12-04T09:55:02;95996.63;;;4.13;51.32
34742;BME280;20968;42.696;23.360;2023-12-04T09:57:28;95995.09;;;4.12;52.00
34742;BME280;20968;42.696;23.360;2023-12-04T09:59:53;95996.38;;;4.27;52.33
34742;BME280;20968;42.696;23.360;2023-12-04T10:02:19;95992.91;;;4.46;52.97
34742;BME280;20968;42.696;23.360;2023-12-04T10:04:45;95989.69;;;4.51;52.71
34742;BME280;20968;42.696;23.360;2023-12-04T10:07:11;95981.16;;;4.49;51.16
34742;BME280;20968;42.696;23.360;2023-12-04T10:09:36;95989.59;;;4.35;51.11
34742;BME280;20968;42.696;23.360;2023-12-04T10:12:02;95983.84;;;4.30;52.26
34742;BME280;20968;42.696;23.360;2023-12-04T10:14:27;95986.50;;;4.33;51.57
34742;BME280;20968;42.696;23.360;2023-12-04T10:16:52;95985.41;;;4.31;51.34
34742;BME280;20968;42.696;23.360;2023-12-04T10:21:45;95986.72;;;4.23;52.82
34742;BME280;20968;42.696;23.360;2023-12-04T10:24:11;95980.28;;;4.13;52.87
34742;BME280;20968;42.696;23.360;2023-12-04T10:26:37;95977.44;;;3.97;53.44
34742;BME280;20968;42.696;23.360;2023-12-04T10:29:03;95979.34;;;4.00;53.80
34742;BME280;20968;42.696;23.360;2023-12-04T10:31:33;95966.16;;;4.18;52.82
34742;BME280;20968;42.696;23.360;2023-12-04T10:33:59;95961.06;;;4.20;53.54
34742;BME280;20968;42.696;23.360;2023-12-04T10:36:25;95954.88;;;4.39;52.70
34742;BME280;20968;42.696;23.360;2023-12-04T10:39:00;95957.81;;;4.29;52.68
34742;BME280;20968;42.696;23.360;2023-12-04T10:41:25;95949.91;;;4.34;53.95
34742;BME280;20968;42.696;23.360;2023-12-04T10:43:51;95956.13;;;4.15;54.45
34742;BME280;20968;42.696;23.360;2023-12-04T10:46:17;95958.72;;;4.42;55.40
34742;BME280;20968;42.696;23.360;2023-12-04T10:48:47;95954.22;;;4.70;54.84
34742;BME280;20968;42.696;23.360;2023-12-04T10:51:12;95951.56;;;4.86;54.08
34742;BME280;20968;42.696;23.360;2023-12-04T10:53:38;95956.19;;;5.05;54.03
34742;BME280;20968;42.696;23.360;2023-12-04T10:56:10;95950.56;;;4.96;53.85
34742;BME280;20968;42.696;23.360;2023-12-04T10:58:41;95959.50;;;4.97;54.33
34742;BME280;20968;42.696;23.360;2023-12-04T11:01:07;95953.50;;;5.21;53.91
34742;BME280;20968;42.696;23.360;2023-12-04T11:03:44;95964.78;;;5.39;54.39
34742;BME280;20968;42.696;23.360;2023-12-04T11:06:11;95953.91;;;5.87;53.17
34742;BME280;20968;42.696;23.360;2023-12-04T11:08:39;95947.31;;;6.00;52.69
34742;BME280;20968;42.696;23.360;2023-12-04T11:11:12;95948.88;;;5.69;53.76
34742;BME280;20968;42.696;23.360;2023-12-04T11:13:39;95937.41;;;5.58;53.53
34742;BME280;20968;42.696;23.360;2023-12-04T11:19:32;95934.50;;;5.97;52.02
34742;BME280;20968;42.696;23.360;2023-12-04T11:22:00;95938.38;;;6.28;52.43
34742;BME280;20968;42.696;23.360;2023-12-04T11:24:27;95928.53;;;6.59;51.94
34742;BME280;20968;42.696;23.360;2023-12-04T11:26:53;95922.69;;;7.35;49.74
34742;BME280;20968;42.696;23.360;2023-12-04T11:29:19;95923.75;;;7.87;47.98
34742;BME280;20968;42.696;23.360;2023-12-04T11:31:45;95919.78;;;8.34;47.92
34742;BME280;20968;42.696;23.360;2023-12-04T11:34:11;95916.66;;;8.87;46.67
34742;BME280;20968;42.696;23.360;2023-12-04T11:36:37;95920.72;;;9.34;45.44
34742;BME280;20968;42.696;23.360;2023-12-04T11:39:03;95918.31;;;9.45;44.76
34742;BME280;20968;42.696;23.360;2023-12-04T11:41:30;95910.06;;;9.45;44.44
34742;BME280;20968;42.696;23.360;2023-12-04T11:43:56;95905.41;;;9.64;44.01
34742;BME280;20968;42.696;23.360;2023-12-04T11:46:23;95898.59;;;9.95;43.40
34742;BME280;20968;42.696;23.360;2023-12-04T11:48:50;95894.47;;;9.91;43.82
34742;BME280;20968;42.696;23.360;2023-12-04T11:54:15;95885.66;;;10.40;43.76
34742;BME280;20968;42.696;23.360;2023-12-04T11:56:57;95883.84;;;10.46;43.35
34742;BME280;20968;42.696;23.360;2023-12-04T11:59:24;95881.50;;;10.72;42.49
34742;BME280;20968;42.696;23.360;2023-12-04T12:01:50;95882.47;;;10.42;42.07
34742;BME280;20968;42.696;23.360;2023-12-04T12:04:17;95892.09;;;10.02;43.00
34742;BME280;20968;42.696;23.360;2023-12-04T12:06:44;95881.06;;;10.19;42.86
34742;BME280;20968;42.696;23.360;2023-12-04T12:09:09;95876.81;;;10.36;42.39
34742;BME280;20968;42.696;23.360;2023-12-04T12:11:35;95875.88;;;10.30;42.11
34742;BME280;20968;42.696;23.360;2023-12-04T12:14:00;95863.59;;;9.87;43.53
34742;BME280;20968;42.696;23.360;2023-12-04T12:16:26;95865.25;;;9.84;42.57
34742;BME280;20968;42.696;23.360;2023-12-04T12:18:52;95860.13;;;10.49;43.27
34742;BME280;20968;42.696;23.360;2023-12-04T12:21:18;95858.16;;;10.22;43.07
34742;BME280;20968;42.696;23.360;2023-12-04T12:23:44;95856.19;;;9.57;43.86
34742;BME280;20968;42.696;23.360;2023-12-04T12:26:09;95861.69;;;9.48;43.40
34742;BME280;20968;42.696;23.360;2023-12-04T12:28:35;95853.28;;;9.42;44.05
34742;BME280;20968;42.696;23.360;2023-12-04T12:31:02;95850.41;;;9.16;44.91
34742;BME280;20968;42.696;23.360;2023-12-04T12:33:28;95849.97;;;9.17;45.89
34742;BME280;20968;42.696;23.360;2023-12-04T12:35:53;95845.53;;;9.11;45.92
34742;BME280;20968;42.696;23.360;2023-12-04T12:38:20;95840.75;;;9.02;44.84
34742;BME280;20968;42.696;23.360;2023-12-04T12:40:45;95848.88;;;9.06;45.90
34742;BME280;20968;42.696;23.360;2023-12-04T12:43:11;95842.47;;;8.78;46.38
34742;BME280;20968;42.696;23.360;2023-12-04T12:48:05;95844.91;;;9.16;45.98
34742;BME280;20968;42.696;23.360;2023-12-04T12:50:31;95836.25;;;9.17;44.92
34742;BME280;20968;42.696;23.360;2023-12-04T12:52:57;95838.34;;;8.74;44.86
34742;BME280;20968;42.696;23.360;2023-12-04T12:55:27;95837.22;;;8.41;46.11
34742;BME280;20968;42.696;23.360;2023-12-04T12:57:55;95827.38;;;8.10;46.13
34742;BME280;20968;42.696;23.360;2023-12-04T13:00:20;95830.69;;;7.71;48.21
34742;BME280;20968;42.696;23.360;2023-12-04T13:02:47;95823.59;;;7.61;49.01